createdAt,value
2018-07-21T00:00:39.911Z,5.34
2018-07-21T00:06:34.976Z,5.26
2018-07-21T00:12:29.963Z,5.29
2018-07-21T00:18:24.979Z,5.59
2018-07-21T00:24:19.981Z,5.62
2018-07-21T00:30:14.961Z,5.32
2018-07-21T00:36:09.929Z,5.24
2018-07-21T00:42:04.952Z,5.55
2018-07-21T00:47:59.959Z,5.38
2018-07-21T00:53:54.937Z,5.65
2018-07-21T00:59:49.998Z,5.34
2018-07-21T01:05:44.961Z,5.54
2018-07-21T01:11:40.028Z,5.98
2018-07-21T01:17:34.970Z,5.44
2018-07-21T01:23:29.968Z,6.38
2018-07-21T01:29:24.969Z,5.7
2018-07-21T01:35:19.990Z,5.97
2018-07-21T01:41:14.982Z,6.05
2018-07-21T01:47:10.005Z,5.91
2018-07-21T01:53:05.018Z,6.01
2018-07-21T01:59:00.018Z,5.5
2018-07-21T02:04:55.009Z,5.6
2018-07-21T02:10:50.001Z,6.28
2018-07-21T02:16:45.029Z,6.2
2018-07-21T02:22:40.112Z,6.53
2018-07-21T02:28:35.052Z,5.9
2018-07-21T02:34:30.086Z,6.04
2018-07-21T02:40:25.038Z,6.38
2018-07-21T02:46:20.021Z,6.24
2018-07-21T02:52:15.009Z,6.42
2018-07-21T02:58:10.021Z,6.61
2018-07-21T03:04:05.044Z,5.83
2018-07-21T03:10:00.179Z,6.4
2018-07-21T03:15:55.035Z,6.18
2018-07-21T03:21:50.093Z,5.99
2018-07-21T03:27:45.076Z,6.27
2018-07-21T03:33:40.047Z,6.08
2018-07-21T03:39:35.056Z,5.97
2018-07-21T03:45:30.151Z,7
2018-07-21T03:51:25.059Z,6.43
2018-07-21T03:57:20.064Z,6.81
2018-07-21T04:03:15.107Z,6.56
2018-07-21T04:09:10.093Z,6.34
2018-07-21T04:15:05.137Z,6.54
2018-07-21T04:21:00.110Z,6.71
2018-07-21T04:26:55.116Z,6.35
2018-07-21T04:32:50.081Z,6.25
2018-07-21T04:38:45.143Z,6.2
2018-07-21T04:44:40.123Z,6.13
2018-07-21T04:50:35.106Z,6.49
2018-07-21T04:56:30.106Z,6.06
2018-07-21T05:02:25.164Z,5.73
2018-07-21T05:08:20.098Z,5.75
2018-07-21T05:14:15.150Z,6.03
2018-07-21T05:20:10.193Z,7.01
2018-07-21T05:26:05.124Z,6.99
2018-07-21T05:32:00.192Z,6.41
2018-07-21T05:37:55.154Z,6.78
2018-07-21T05:43:50.155Z,7.31
2018-07-21T05:49:45.155Z,6.9
2018-07-21T05:55:40.166Z,7.13
2018-07-21T06:01:35.225Z,7.54
2018-07-21T06:07:30.156Z,7.22
2018-07-21T06:13:25.147Z,7.64
2018-07-21T06:19:20.169Z,6.75
2018-07-21T06:25:15.271Z,8.34
2018-07-21T06:31:10.188Z,7.97
2018-07-21T06:37:05.196Z,7.22
2018-07-21T06:43:00.246Z,8.48
2018-07-21T06:48:55.212Z,7.17
2018-07-21T06:54:50.189Z,7.77
2018-07-21T07:00:45.210Z,7
2018-07-21T07:06:40.221Z,6.69
2018-07-21T07:12:35.190Z,6.26
2018-07-21T07:18:30.204Z,7.4
2018-07-21T07:24:25.232Z,6.49
2018-07-21T07:30:20.215Z,6.37
2018-07-21T07:36:15.264Z,5.54
2018-07-21T07:42:10.282Z,4.96
2018-07-21T07:48:05.295Z,5.04
2018-07-21T07:54:00.265Z,4.61
2018-07-21T07:59:55.226Z,4.34
2018-07-21T08:05:50.266Z,5.39
2018-07-21T08:11:45.272Z,4.7
2018-07-21T08:17:40.292Z,5.39
2018-07-21T08:23:35.276Z,3.21
2018-07-21T08:29:30.259Z,3.52
2018-07-21T08:35:25.262Z,3.8
2018-07-21T08:41:20.279Z,3.87
2018-07-21T08:47:15.288Z,3.24
2018-07-21T08:53:10.268Z,3.52
2018-07-21T08:59:05.309Z,3.66
2018-07-21T09:05:00.283Z,3.79
2018-07-21T09:10:55.312Z,3.65
2018-07-21T09:16:50.322Z,3.86
2018-07-21T09:22:45.300Z,3.35
2018-07-21T09:28:40.312Z,3.23
2018-07-21T09:34:35.309Z,3.09
2018-07-21T09:40:30.367Z,3.27
2018-07-21T09:46:25.366Z,3.14
2018-07-21T09:52:20.334Z,3.26
2018-07-21T09:58:15.328Z,3.3
2018-07-21T10:04:10.341Z,3.41
2018-07-21T10:10:05.365Z,3.12
2018-07-21T10:16:00.358Z,3.24
2018-07-21T10:21:55.449Z,3.44
2018-07-21T10:27:50.373Z,3.23
2018-07-21T10:33:45.380Z,3.26
2018-07-21T10:39:40.393Z,3.89
2018-07-21T10:45:35.371Z,3.03
2018-07-21T10:51:30.378Z,2.78
2018-07-21T10:57:25.375Z,3.04
2018-07-21T11:03:20.417Z,3.66
2018-07-21T11:09:15.412Z,3.51
2018-07-21T11:15:10.538Z,3.51
2018-07-21T11:21:05.405Z,3.43
2018-07-21T11:27:00.483Z,3.47
2018-07-21T11:32:55.448Z,3.24
2018-07-21T11:38:50.419Z,3.05
2018-07-21T11:44:45.458Z,3.26
2018-07-21T11:50:40.425Z,3.15
2018-07-21T11:56:35.456Z,3.53
2018-07-21T12:08:29.571Z,3.57
2018-07-21T12:14:20.439Z,4.04
2018-07-21T12:20:15.469Z,3.39
2018-07-21T12:26:10.503Z,3.5
2018-07-21T12:38:00.490Z,3.91
2018-07-21T12:43:55.478Z,3.67
2018-07-21T12:49:50.483Z,3.66
2018-07-21T12:55:45.488Z,3.31
2018-07-21T13:01:40.486Z,3.35
2018-07-21T13:07:35.504Z,4.09
2018-07-21T13:13:30.491Z,3.57
2018-07-21T13:19:25.530Z,3.54
2018-07-21T13:25:20.557Z,3.69
2018-07-21T13:31:15.505Z,3.83
2018-07-21T13:37:10.541Z,3.71
2018-07-21T13:43:05.510Z,4.22
2018-07-21T13:49:00.533Z,3.67
2018-07-21T13:54:55.564Z,5.19
2018-07-21T14:00:50.533Z,3.79
2018-07-21T14:06:45.528Z,3.58
2018-07-21T14:12:40.540Z,3.72
2018-07-21T14:18:35.551Z,3.96
2018-07-21T14:24:30.568Z,3.55
2018-07-21T14:30:25.555Z,3.8
2018-07-21T14:36:20.681Z,3.49
2018-07-21T14:42:15.562Z,3.42
2018-07-21T14:48:10.599Z,3.82
2018-07-21T14:54:05.648Z,3.93
2018-07-21T15:00:00.575Z,3.48
2018-07-21T15:05:55.604Z,3.49
2018-07-21T15:11:50.561Z,3.83
2018-07-21T15:17:45.615Z,3.68
2018-07-21T15:23:40.593Z,3.78
2018-07-21T15:29:35.677Z,4
2018-07-21T15:35:30.584Z,3.7
2018-07-21T15:41:25.647Z,3.74
2018-07-21T15:47:20.635Z,3.94
2018-07-21T15:53:15.625Z,4.07
2018-07-21T15:59:10.608Z,4.2
2018-07-21T16:05:05.650Z,3.75
2018-07-21T16:11:00.626Z,4.01
2018-07-21T16:16:55.697Z,3.9
2018-07-21T16:22:50.699Z,3.73
2018-07-21T16:28:45.663Z,3.52
2018-07-21T16:34:40.676Z,3.62
2018-07-21T16:40:35.688Z,3.6
2018-07-21T16:46:30.683Z,3.62
2018-07-21T16:52:25.670Z,3.52
2018-07-21T16:58:20.663Z,3.23
2018-07-21T17:04:15.673Z,3.28
2018-07-21T17:10:10.715Z,3.81
2018-07-21T17:16:05.710Z,3.19
2018-07-21T17:22:00.706Z,3.88
2018-07-21T17:27:55.697Z,4.1
2018-07-21T17:33:50.711Z,3.52
2018-07-21T17:39:45.688Z,3.56
2018-07-21T17:45:40.714Z,4.1
2018-07-21T17:51:35.698Z,4.18
2018-07-21T17:57:30.732Z,4.42
2018-07-21T18:03:25.781Z,4.79
2018-07-21T18:09:20.745Z,4.56
2018-07-21T18:15:15.725Z,4.47
2018-07-21T18:21:10.744Z,4.57
2018-07-21T18:27:05.725Z,4.77
2018-07-21T18:33:00.823Z,4.54
2018-07-21T18:38:55.744Z,4.97
2018-07-21T18:44:50.752Z,5.61
2018-07-21T18:50:45.744Z,6.74
2018-07-21T18:56:40.775Z,6.14
2018-07-21T19:02:35.762Z,5.26
2018-07-21T19:08:30.769Z,5.07
2018-07-21T19:14:25.777Z,4.66
2018-07-21T19:20:20.784Z,5.14
2018-07-21T19:26:15.790Z,4.81
2018-07-21T19:32:10.902Z,5.22
2018-07-21T19:38:05.829Z,4.7
2018-07-21T19:44:00.815Z,5.4
2018-07-21T19:49:55.823Z,5.47
2018-07-21T19:55:50.815Z,5.4
2018-07-21T20:01:45.822Z,5.16
2018-07-21T20:07:40.820Z,5.32
2018-07-21T20:13:35.817Z,5.75
2018-07-21T20:19:30.918Z,4.94
2018-07-21T20:25:25.855Z,5.58
2018-07-21T20:31:20.835Z,5.14
2018-07-21T20:37:15.849Z,6.43
2018-07-21T20:43:10.854Z,5.46
2018-07-21T20:49:05.846Z,5.05
2018-07-21T20:55:00.840Z,5.43
2018-07-21T21:00:55.870Z,5.88
2018-07-21T21:06:50.891Z,5.61
2018-07-21T21:12:45.873Z,5.97
2018-07-21T21:18:40.931Z,5.99
2018-07-21T21:24:35.905Z,5.83
2018-07-21T21:30:30.927Z,6.39
2018-07-21T21:36:25.883Z,6.49
2018-07-21T21:42:21.048Z,6.63
2018-07-21T21:48:15.917Z,6.37
2018-07-21T21:54:10.914Z,6.4
2018-07-21T22:00:05.896Z,6.79
2018-07-21T22:06:00.888Z,6.85
2018-07-21T22:11:55.930Z,6.46
2018-07-21T22:17:50.895Z,7.09
2018-07-21T22:23:45.909Z,6.47
2018-07-21T22:29:40.916Z,6.68
2018-07-21T22:35:35.942Z,6.41
2018-07-21T22:41:30.928Z,6.5
2018-07-21T22:47:25.978Z,6.26
2018-07-21T22:53:20.916Z,6.9
2018-07-21T22:59:15.939Z,6.77
2018-07-21T23:05:10.949Z,6.66
2018-07-21T23:11:05.944Z,6.87
2018-07-21T23:17:00.944Z,6.95
2018-07-21T23:22:55.956Z,7.35
2018-07-21T23:28:50.969Z,8.02
2018-07-21T23:34:45.954Z,7.53
2018-07-21T23:40:40.958Z,7.6
2018-07-21T23:46:35.956Z,7.26
2018-07-21T23:52:31.012Z,7.25
2018-07-21T23:58:25.957Z,7.47
